Date,TemperatureHighF,TemperatureAvgF,TemperatureLowF,DewpointHighF,DewpointAvgF,DewpointLowF,HumidityHigh,HumidityAvg,HumidityLow,PressureMaxIn,PressureMinIn,WindSpeedMaxMPH,WindSpeedAvgMPH,GustSpeedMaxMPH,PrecipitationSumIn
2013-1-1,43.3,40.7,38.5,43.1,39.8,37.4,99,97,91,30.45,30.26,6,2,14,0.00
2013-1-2,38.7,35.6,30.4,37.9,34.5,30.1,99,96,91,30.53,30.43,5,1,9,0.01
2013-1-3,52.2,34.0,23.0,36.7,29.0,22.6,99,84,44,30.68,30.51,10,2,17,0.00
2013-1-4,50.9,34.6,24.6,35.7,28.0,23.9,99,80,41,30.75,30.61,6,2,13,0.00
2013-1-5,48.4,38.5,27.5,39.9,34.0,26.5,96,85,61,30.63,30.47,8,2,16,0.00
2013-1-6,62.6,37.6,23.2,39.4,28.0,22.7,99,75,27,30.62,30.49,8,2,17,0.00
2013-1-7,62.4,35.0,18.0,37.5,26.9,16.6,97,77,34,30.66,30.43,5,1,11,0.00
2013-1-8,53.1,42.8,27.5,45.3,37.7,25.0,94,83,68,30.45,30.31,4,1,8,0.00
2013-1-9,53.4,50.9,47.7,53.2,50.4,45.1,99,98,86,30.53,30.39,8,3,19,0.38
2013-1-10,64.4,57.0,48.4,62.9,56.0,47.5,99,96,86,30.41,30.09,12,5,24,0.07
2013-1-11,70.2,55.0,40.6,56.9,49.6,40.2,99,83,59,30.25,30.10,14,4,27,0.00
2013-1-12,71.8,60.9,41.9,70.5,59.0,41.6,99,93,77,30.16,29.91,19,6,34,2.22
2013-1-13,46.4,38.7,29.7,41.6,34.8,26.4,99,86,65,30.53,30.07,11,5,22,0.09
2013-1-14,46.9,30.9,24.4,28.1,22.3,19.6,89,71,41,30.67,30.50,10,5,19,0.00
2013-1-15,34.0,29.9,26.1,31.0,24.9,17.6,94,81,62,30.57,30.35,10,4,19,0.01
2013-1-16,54.5,37.3,25.5,30.9,25.6,15.2,89,67,23,30.45,30.34,9,3,14,0.00
2013-1-17,61.9,38.5,23.0,39.0,29.0,20.8,93,72,37,30.74,30.40,9,3,20,0.00
2013-1-18,61.2,38.3,21.4,38.9,28.0,20.2,98,72,29,30.79,30.56,8,2,16,0.00
2013-1-19,64.2,46.6,33.8,39.9,32.7,26.8,87,60,38,30.56,30.39,12,4,21,0.00
2013-1-20,71.6,44.8,28.0,45.0,35.4,26.8,98,75,34,30.51,30.36,7,2,15,0.00
2013-1-21,60.3,41.1,29.7,33.9,28.3,22.5,97,65,28,30.59,30.40,12,3,21,0.00
2013-1-22,55.8,34.9,21.2,32.1,26.0,19.5,96,73,38,30.64,30.51,6,2,12,0.00
2013-1-23,69.8,46.2,29.3,51.4,39.1,27.3,96,79,51,30.56,30.39,11,2,21,0.00
2013-1-24,47.7,41.0,35.8,45.5,32.8,23.8,99,74,47,30.60,30.40,10,4,27,0.00
2013-1-25,55.6,40.1,32.5,44.6,36.0,28.7,98,86,65,30.47,30.31,6,2,11,0.01
2013-1-26,47.5,39.9,29.3,41.7,36.9,28.9,99,89,74,30.55,30.44,6,2,14,0.00
2013-1-27,65.1,52.9,42.8,61.6,50.8,40.4,99,93,81,30.46,30.26,15,4,29,0.01
2013-1-28,74.5,67.6,63.9,68.6,64.6,61.3,96,90,80,30.35,30.19,15,10,30,0.01
2013-1-29,71.2,65.3,54.0,68.5,64.2,52.1,99,96,76,30.20,29.73,17,10,36,1.02
2013-1-30,53.8,43.5,28.0,52.1,36.7,25.8,99,78,50,30.33,29.80,13,5,29,0.01
2013-1-31,63.0,43.2,24.8,34.8,28.8,23.8,97,63,26,30.57,30.30,14,4,26,0.00